createdAt,value
2022-07-29T00:00:10.901Z,62.60
2022-07-29T00:02:38.233Z,62.60
2022-07-29T00:05:16.549Z,62.70
2022-07-29T00:07:54.039Z,62.80
2022-07-29T00:10:27.748Z,62.90
2022-07-29T00:12:54.787Z,63.10
2022-07-29T00:15:24.455Z,63.00
2022-07-29T00:17:53.112Z,62.90
2022-07-29T00:20:20.331Z,63.00
2022-07-29T00:22:54.809Z,63.10
2022-07-29T00:25:22.031Z,63.20
2022-07-29T00:27:52.192Z,63.20
2022-07-29T00:30:35.176Z,63.40
2022-07-29T00:37:13.431Z,63.70
2022-07-29T00:40:18.441Z,63.70
2022-07-29T00:50:08.675Z,64.00
2022-07-29T00:52:41.866Z,64.00
2022-07-29T00:55:14.016Z,64.00
2022-07-29T00:57:41.831Z,64.10
2022-07-29T01:00:11.298Z,64.20
2022-07-29T01:02:46.551Z,64.30
2022-07-29T01:05:49.699Z,64.40
2022-07-29T01:08:31.148Z,64.60
2022-07-29T01:10:58.223Z,64.50
2022-07-29T01:13:25.357Z,64.50
2022-07-29T01:15:58.020Z,64.60
2022-07-29T01:18:37.403Z,64.60
2022-07-29T01:21:30.536Z,64.80
2022-07-29T01:24:29.979Z,64.80
2022-07-29T01:26:59.341Z,65.00
2022-07-29T01:29:35.789Z,64.90
2022-07-29T01:32:28.446Z,65.00
2022-07-29T01:35:20.545Z,65.20
2022-07-29T01:38:09.801Z,65.30
2022-07-29T01:41:00.215Z,65.30
2022-07-29T01:43:44.771Z,65.50
2022-07-29T01:46:16.529Z,65.50
2022-07-29T01:48:59.309Z,65.50
2022-07-29T01:51:30.741Z,65.70
2022-07-29T01:54:22.217Z,65.70
2022-07-29T01:56:55.309Z,65.80
2022-07-29T01:59:22.955Z,65.80
2022-07-29T02:02:10.119Z,65.90
2022-07-29T02:04:38.340Z,66.10
2022-07-29T02:07:12.186Z,66.00
2022-07-29T02:09:50.646Z,66.20
2022-07-29T02:12:20.921Z,66.30
2022-07-29T02:14:55.696Z,66.40
2022-07-29T02:17:30.527Z,66.50
2022-07-29T02:19:58.984Z,66.60
2022-07-29T02:22:26.107Z,66.70
2022-07-29T02:24:53.168Z,66.90
2022-07-29T02:27:20.835Z,67.00
2022-07-29T02:29:51.552Z,67.10
2022-07-29T02:32:22.808Z,67.20
2022-07-29T02:34:50.206Z,67.30
2022-07-29T02:37:17.616Z,67.50
2022-07-29T02:39:45.155Z,67.60
2022-07-29T02:42:14.212Z,67.80
2022-07-29T02:44:41.240Z,67.90
2022-07-29T02:47:42.178Z,68.10
2022-07-29T02:50:32.211Z,68.30
2022-07-29T02:53:04.640Z,68.40
2022-07-29T02:56:12.109Z,68.40
2022-07-29T02:58:39.663Z,68.70
2022-07-29T03:01:20.966Z,68.60
2022-07-29T03:03:52.293Z,68.80
2022-07-29T03:06:37.408Z,69.00
2022-07-29T03:09:10.450Z,69.10
2022-07-29T03:11:45.853Z,69.20
2022-07-29T03:14:18.596Z,69.30
2022-07-29T03:16:46.251Z,69.40
2022-07-29T03:19:13.481Z,69.60
2022-07-29T03:21:40.629Z,69.70
2022-07-29T03:24:12.764Z,69.80
2022-07-29T03:26:39.845Z,69.90
2022-07-29T03:29:07.055Z,70.00
2022-07-29T03:31:40.340Z,70.20
2022-07-29T03:34:13.707Z,70.40
2022-07-29T03:36:43.152Z,70.30
2022-07-29T03:39:12.961Z,70.40
2022-07-29T03:41:43.255Z,70.40
2022-07-29T03:44:13.822Z,70.50
2022-07-29T03:46:41.272Z,70.70
2022-07-29T03:49:12.365Z,70.80
2022-07-29T03:51:39.817Z,70.80
2022-07-29T03:54:10.146Z,71.00
2022-07-29T03:56:40.045Z,71.60
2022-07-29T03:59:07.115Z,71.20
2022-07-29T04:01:35.006Z,71.20
2022-07-29T04:04:05.810Z,71.30
2022-07-29T04:06:48.316Z,71.40
2022-07-29T04:09:15.580Z,71.50
2022-07-29T04:12:02.665Z,71.40
2022-07-29T04:14:30.116Z,71.50
2022-07-29T04:16:57.247Z,71.60
2022-07-29T04:19:26.024Z,71.60
2022-07-29T04:21:53.248Z,71.70
2022-07-29T04:24:20.716Z,71.80
2022-07-29T04:26:50.273Z,71.80
2022-07-29T04:29:19.810Z,71.90
2022-07-29T04:31:50.494Z,71.90
2022-07-29T04:34:18.187Z,71.90
2022-07-29T04:36:45.723Z,71.90
2022-07-29T04:39:22.460Z,71.90
2022-07-29T04:41:52.505Z,71.90
2022-07-29T04:44:28.479Z,71.80
2022-07-29T04:46:59.129Z,71.80
2022-07-29T04:49:42.870Z,71.80
2022-07-29T04:52:12.570Z,71.90
2022-07-29T04:54:57.336Z,71.90
2022-07-29T04:57:42.498Z,71.90
2022-07-29T05:03:24.156Z,71.80
2022-07-29T05:05:55.459Z,71.90
2022-07-29T05:12:20.525Z,71.80
2022-07-29T05:14:50.136Z,71.50
2022-07-29T05:17:27.292Z,71.50
2022-07-29T05:20:14.579Z,71.50
2022-07-29T05:22:47.017Z,71.40
2022-07-29T05:25:14.051Z,71.40
2022-07-29T05:27:43.765Z,71.30
2022-07-29T05:30:18.746Z,71.30
2022-07-29T05:33:03.541Z,71.20
2022-07-29T05:36:46.459Z,71.10
2022-07-29T05:39:47.434Z,71.10
2022-07-29T05:42:26.067Z,70.70
2022-07-29T05:44:53.372Z,70.50
2022-07-29T05:54:20.473Z,70.10
2022-07-29T06:00:46.114Z,69.60
2022-07-29T06:03:15.785Z,69.30
2022-07-29T06:05:43.053Z,69.20
2022-07-29T06:08:12.103Z,69.10
2022-07-29T06:10:47.001Z,69.10
2022-07-29T06:13:44.510Z,69.10
2022-07-29T06:16:15.839Z,69.10
2022-07-29T06:19:04.530Z,68.90
2022-07-29T06:21:32.091Z,68.90
2022-07-29T06:24:00.634Z,68.70
2022-07-29T06:26:30.339Z,68.70
2022-07-29T06:31:47.226Z,68.60
2022-07-29T06:37:59.644Z,68.40
2022-07-29T06:40:48.300Z,68.10
2022-07-29T06:43:15.587Z,68.00
2022-07-29T06:45:45.151Z,67.90
2022-07-29T06:48:19.456Z,67.90
2022-07-29T06:50:49.127Z,67.80
2022-07-29T06:53:34.731Z,67.60
2022-07-29T06:56:14.920Z,67.50
2022-07-29T07:01:47.447Z,67.30
2022-07-29T07:04:20.330Z,67.10
2022-07-29T07:06:50.950Z,66.90
2022-07-29T07:09:40.163Z,66.70
2022-07-29T07:12:13.288Z,66.60
2022-07-29T07:14:49.442Z,66.60
2022-07-29T07:23:57.509Z,66.60
2022-07-29T07:26:29.277Z,66.60
2022-07-29T07:28:58.973Z,66.70
2022-07-29T07:31:28.789Z,66.80
2022-07-29T07:34:10.770Z,66.90
2022-07-29T07:36:43.372Z,67.00
2022-07-29T07:40:06.126Z,66.90
2022-07-29T07:42:59.294Z,66.80
2022-07-29T07:45:26.665Z,66.50
2022-07-29T07:48:11.552Z,66.30
2022-07-29T07:50:50.706Z,66.10
2022-07-29T07:53:45.943Z,65.80
2022-07-29T07:58:03.770Z,65.70
2022-07-29T08:03:54.590Z,65.30
2022-07-29T08:10:09.166Z,65.00
2022-07-29T08:21:19.100Z,63.80
2022-07-29T09:32:06.786Z,57.10
2022-07-29T09:43:25.610Z,55.60
2022-07-29T13:32:29.010Z,44.90
2022-07-29T13:35:01.728Z,44.90
2022-07-29T13:38:31.283Z,44.80
2022-07-29T13:41:03.750Z,44.70
2022-07-29T13:43:31.024Z,44.70
2022-07-29T13:49:18.686Z,44.50
2022-07-29T13:55:19.487Z,44.30
2022-07-29T13:57:56.613Z,44.40
2022-07-29T14:00:46.430Z,44.40
2022-07-29T14:03:23.259Z,44.30
2022-07-29T14:08:51.605Z,44.30
2022-07-29T14:11:33.223Z,44.30
2022-07-29T14:14:40.201Z,44.30
2022-07-29T14:58:58.811Z,43.80
2022-07-29T15:01:25.946Z,43.70
2022-07-29T15:03:55.741Z,43.50
2022-07-29T15:06:35.964Z,43.40
2022-07-29T15:09:03.351Z,43.30
2022-07-29T15:11:40.020Z,43.10
2022-07-29T15:14:15.833Z,43.10
2022-07-29T15:16:48.549Z,42.90
2022-07-29T15:19:15.719Z,42.70
2022-07-29T15:21:48.581Z,42.70
2022-07-29T15:24:19.469Z,42.60
2022-07-29T15:26:47.852Z,42.40
2022-07-29T15:29:15.244Z,42.30
2022-07-29T15:31:42.337Z,42.20
2022-07-29T15:34:09.369Z,42.20
2022-07-29T15:36:51.598Z,42.20
2022-07-29T15:39:19.839Z,42.20
2022-07-29T15:41:49.978Z,42.20
2022-07-29T15:44:16.993Z,42.20
2022-07-29T15:47:03.849Z,42.20
2022-07-29T15:49:48.667Z,42.10
2022-07-29T15:52:25.857Z,42.20
2022-07-29T15:54:54.379Z,42.10
2022-07-29T15:57:24.145Z,42.00
2022-07-29T16:05:48.228Z,41.90
2022-07-29T16:08:22.777Z,41.80
2022-07-29T16:10:49.995Z,41.70
2022-07-29T16:13:27.491Z,41.70
2022-07-29T16:16:02.168Z,41.60
2022-07-29T16:18:35.346Z,41.60
2022-07-29T16:21:04.208Z,41.60
2022-07-29T16:23:31.304Z,41.50
2022-07-29T16:26:00.048Z,41.60
2022-07-29T16:28:27.741Z,41.50
2022-07-29T16:31:21.130Z,41.50
2022-07-29T16:33:53.638Z,41.30
2022-07-29T16:36:22.541Z,41.30
2022-07-29T16:38:52.847Z,41.30
2022-07-29T16:41:21.023Z,41.20
2022-07-29T16:43:49.094Z,41.30
2022-07-29T16:46:20.037Z,41.30
2022-07-29T16:48:54.091Z,41.20
2022-07-29T16:51:35.888Z,41.10
2022-07-29T16:54:02.958Z,41.10
2022-07-29T16:56:37.153Z,41.00
2022-07-29T16:59:04.457Z,40.90
2022-07-29T17:01:33.958Z,41.00
2022-07-29T17:04:06.796Z,40.90
2022-07-29T17:06:40.372Z,40.90
2022-07-29T17:09:19.411Z,40.80
2022-07-29T17:11:55.013Z,40.70
2022-07-29T17:14:37.975Z,40.80
2022-07-29T17:17:13.532Z,40.70
2022-07-29T17:19:40.598Z,40.70
2022-07-29T17:22:15.481Z,40.70
2022-07-29T17:24:48.291Z,40.70
2022-07-29T17:27:15.617Z,40.60
2022-07-29T17:29:42.948Z,40.70
2022-07-29T17:32:10.176Z,40.60
2022-07-29T17:34:38.005Z,40.60
2022-07-29T17:37:05.717Z,41.10
2022-07-29T17:39:33.227Z,40.60
2022-07-29T17:42:00.142Z,40.70
2022-07-29T17:44:27.541Z,40.80
2022-07-29T17:46:54.590Z,40.80
2022-07-29T17:49:21.639Z,41.00
2022-07-29T17:51:57.609Z,41.20
2022-07-29T17:54:27.770Z,41.60
2022-07-29T17:56:55.488Z,42.00
2022-07-29T17:59:22.659Z,42.30
2022-07-29T18:01:49.731Z,42.70
2022-07-29T18:04:20.296Z,43.00
2022-07-29T18:06:47.427Z,43.20
2022-07-29T18:09:14.283Z,43.50
2022-07-29T18:11:44.479Z,43.60
2022-07-29T18:14:12.702Z,43.90
2022-07-29T18:16:39.925Z,44.10
2022-07-29T18:19:06.960Z,44.30
2022-07-29T18:21:41.060Z,44.50
2022-07-29T18:24:11.248Z,44.70
2022-07-29T18:26:38.685Z,44.90
2022-07-29T18:29:05.959Z,45.10
2022-07-29T18:31:36.319Z,45.20
2022-07-29T18:34:03.427Z,45.40
2022-07-29T18:36:31.007Z,45.60
2022-07-29T18:38:57.904Z,45.70
2022-07-29T18:41:24.882Z,45.90
2022-07-29T18:43:51.784Z,46.10
2022-07-29T18:46:19.784Z,46.20
2022-07-29T18:48:46.981Z,46.40
2022-07-29T18:51:58.274Z,46.60
2022-07-29T18:54:25.350Z,46.90
2022-07-29T18:56:52.628Z,47.00
2022-07-29T18:59:22.210Z,47.20
2022-07-29T19:01:49.406Z,47.40
2022-07-29T19:04:17.376Z,47.50
2022-07-29T19:06:44.374Z,47.60
2022-07-29T19:09:11.413Z,47.70
2022-07-29T19:11:38.683Z,47.80
2022-07-29T19:14:05.751Z,47.80
2022-07-29T19:16:32.958Z,47.90
2022-07-29T19:19:01.127Z,47.90
2022-07-29T19:21:28.424Z,47.90
2022-07-29T19:24:01.557Z,48.00
2022-07-29T19:26:36.567Z,48.00
2022-07-29T19:29:03.968Z,48.00
2022-07-29T19:31:31.139Z,48.10
2022-07-29T19:33:58.925Z,48.30
2022-07-29T19:36:27.414Z,48.50
2022-07-29T19:38:54.694Z,48.60
2022-07-29T19:41:22.679Z,48.80
2022-07-29T19:43:52.890Z,48.90
2022-07-29T19:46:23.842Z,49.10
2022-07-29T19:48:51.277Z,49.30
2022-07-29T19:51:18.386Z,49.40
2022-07-29T19:53:45.452Z,49.60
2022-07-29T19:56:15.684Z,49.80
2022-07-29T19:58:46.515Z,49.90
2022-07-29T20:01:14.864Z,50.00
2022-07-29T20:03:41.934Z,50.10
2022-07-29T20:06:09.044Z,50.20
2022-07-29T20:08:36.274Z,50.30
2022-07-29T20:11:03.622Z,50.50
2022-07-29T20:13:33.161Z,50.60
2022-07-29T20:16:00.759Z,50.80
2022-07-29T20:18:28.149Z,50.90
2022-07-29T20:20:57.378Z,51.10
2022-07-29T20:23:24.573Z,51.20
2022-07-29T20:25:51.874Z,51.30
2022-07-29T20:28:19.093Z,51.50
2022-07-29T20:30:47.637Z,51.60
2022-07-29T20:33:15.349Z,51.70
2022-07-29T20:35:47.939Z,51.90
2022-07-29T20:38:18.215Z,52.00
2022-07-29T20:40:45.685Z,52.20
2022-07-29T20:43:15.614Z,52.30
2022-07-29T20:45:44.246Z,52.50
2022-07-29T20:48:11.745Z,52.60
2022-07-29T20:50:38.992Z,52.70
2022-07-29T20:53:06.033Z,52.80
2022-07-29T20:55:33.133Z,53.00
2022-07-29T20:58:00.285Z,53.20
2022-07-29T21:00:34.752Z,53.30
2022-07-29T21:03:01.977Z,53.40
2022-07-29T21:05:31.718Z,53.60
2022-07-29T21:08:01.247Z,53.80
2022-07-29T21:10:29.636Z,54.00
2022-07-29T21:12:56.886Z,54.00
2022-07-29T21:15:40.700Z,54.20
2022-07-29T21:18:30.492Z,54.40
2022-07-29T21:21:02.399Z,54.60
2022-07-29T21:23:30.379Z,54.70
2022-07-29T21:25:57.691Z,54.80
2022-07-29T21:28:27.959Z,55.00
2022-07-29T21:30:59.265Z,55.10
2022-07-29T21:33:29.482Z,55.20
2022-07-29T21:36:20.314Z,55.40
2022-07-29T21:38:49.260Z,55.60
2022-07-29T21:41:18.754Z,55.70
2022-07-29T21:43:49.099Z,55.80
2022-07-29T21:46:19.485Z,55.90
2022-07-29T21:49:01.464Z,56.00
2022-07-29T21:51:35.309Z,56.10
2022-07-29T21:54:05.095Z,56.20
2022-07-29T21:56:38.041Z,56.20
2022-07-29T21:59:09.703Z,56.20
2022-07-29T22:01:41.721Z,56.30
2022-07-29T22:04:09.726Z,56.40
2022-07-29T22:06:36.986Z,56.50
2022-07-29T22:09:06.650Z,56.60
2022-07-29T22:11:36.949Z,56.60
2022-07-29T22:14:08.547Z,56.70
2022-07-29T22:16:35.692Z,56.80
2022-07-29T22:19:04.114Z,56.80
2022-07-29T22:21:31.311Z,56.90
2022-07-29T22:24:07.628Z,57.00
2022-07-29T22:26:36.967Z,57.20
2022-07-29T22:29:04.038Z,57.20
2022-07-29T22:31:33.660Z,57.40
2022-07-29T22:34:20.535Z,57.50
2022-07-29T22:37:22.173Z,57.60
2022-07-29T22:39:58.124Z,57.70
2022-07-29T22:42:53.172Z,58.40
2022-07-29T22:48:01.568Z,58.00
2022-07-29T22:50:33.305Z,58.00
2022-07-29T22:53:03.790Z,58.10
2022-07-29T22:55:31.098Z,58.20
2022-07-29T22:58:00.183Z,58.30
2022-07-29T23:00:27.704Z,58.40
2022-07-29T23:02:55.013Z,58.40
2022-07-29T23:05:26.827Z,58.50
2022-07-29T23:07:54.253Z,58.60
2022-07-29T23:10:27.060Z,58.70
2022-07-29T23:12:55.216Z,58.70
2022-07-29T23:15:29.591Z,58.70
2022-07-29T23:17:56.851Z,58.80
2022-07-29T23:20:29.589Z,58.70
2022-07-29T23:22:58.552Z,59.40
2022-07-29T23:25:25.785Z,58.80
2022-07-29T23:27:52.961Z,58.80
2022-07-29T23:30:21.518Z,58.80
2022-07-29T23:32:48.764Z,58.90
2022-07-29T23:35:20.883Z,59.00
2022-07-29T23:37:50.125Z,59.10
2022-07-29T23:40:19.410Z,59.10
2022-07-29T23:42:46.491Z,59.20
2022-07-29T23:45:13.748Z,59.20
2022-07-29T23:47:41.285Z,59.30
2022-07-29T23:50:17.007Z,59.30
2022-07-29T23:52:44.585Z,59.40
2022-07-29T23:55:37.638Z,59.40
2022-07-29T23:58:04.858Z,59.50
